createdAt,value
2022-11-01T00:02:12.286Z,85.52
2022-11-01T00:04:39.669Z,85.13
2022-11-01T00:07:07.205Z,85.23
2022-11-01T00:09:36.813Z,83.99
2022-11-01T00:12:04.091Z,83.21
2022-11-01T00:14:31.275Z,82.48
2022-11-01T00:16:58.311Z,85.00
2022-11-01T00:19:27.689Z,86.33
2022-11-01T00:21:54.757Z,85.36
2022-11-01T00:24:21.831Z,85.68
2022-11-01T00:29:22.924Z,83.84
2022-11-01T00:31:52.462Z,83.25
2022-11-01T00:34:19.555Z,83.22
2022-11-01T00:36:46.727Z,84.31
2022-11-01T00:39:15.552Z,82.84
2022-11-01T00:41:42.770Z,83.53
2022-11-01T00:44:09.848Z,83.12
2022-11-01T00:46:36.997Z,85.11
2022-11-01T00:49:06.378Z,84.91
2022-11-01T00:51:33.434Z,84.42
2022-11-01T00:54:00.554Z,84.25
2022-11-01T00:56:27.666Z,84.45
2022-11-01T00:58:56.857Z,83.58
2022-11-01T01:01:23.998Z,85.44
2022-11-01T01:03:51.194Z,84.47
2022-11-01T01:06:18.334Z,85.15
2022-11-01T01:08:47.676Z,84.82
2022-11-01T01:11:15.028Z,85.49
2022-11-01T01:13:42.619Z,86.53
2022-11-01T01:16:12.142Z,88.04
2022-11-01T01:18:39.592Z,87.40
2022-11-01T01:21:06.909Z,87.05
2022-11-01T01:23:34.237Z,87.66
2022-11-01T01:26:09.515Z,86.63
2022-11-01T01:28:41.839Z,86.89
2022-11-01T01:31:14.872Z,85.91
2022-11-01T01:33:42.123Z,87.21
2022-11-01T01:36:09.302Z,86.95
2022-11-01T01:38:41.309Z,87.39
2022-11-01T01:41:27.085Z,87.78
2022-11-01T01:43:54.212Z,87.77
2022-11-01T01:46:23.965Z,87.14
2022-11-01T01:48:57.707Z,88.33
2022-11-01T01:51:27.879Z,87.13
2022-11-01T01:53:58.317Z,86.09
2022-11-01T01:56:35.223Z,87.19
2022-11-01T01:59:11.593Z,85.88
2022-11-01T02:01:41.319Z,88.05
2022-11-01T02:04:39.442Z,87.18
2022-11-01T02:07:08.456Z,87.17
2022-11-01T02:09:36.762Z,89.21
2022-11-01T02:12:04.412Z,86.41
2022-11-01T02:14:31.995Z,86.42
2022-11-01T02:17:21.291Z,87.37
2022-11-01T02:19:57.975Z,86.70
2022-11-01T02:23:02.956Z,87.86
2022-11-01T02:26:21.807Z,88.35
2022-11-01T02:29:28.334Z,87.18
2022-11-01T02:32:01.080Z,87.76
2022-11-01T02:35:27.277Z,87.77
2022-11-01T02:38:06.140Z,88.07
2022-11-01T02:41:03.235Z,88.50
2022-11-01T02:43:55.647Z,88.77
2022-11-01T02:46:42.557Z,90.99
2022-11-01T02:49:15.342Z,89.99
2022-11-01T02:51:47.471Z,89.87
2022-11-01T02:54:28.090Z,90.40
2022-11-01T02:56:58.238Z,89.67
2022-11-01T02:59:28.454Z,89.78
2022-11-01T03:02:40.056Z,90.94
2022-11-01T03:05:23.876Z,90.64
2022-11-01T03:08:05.506Z,89.35
2022-11-01T03:11:14.404Z,89.66
2022-11-01T03:14:08.806Z,89.00
2022-11-01T03:16:47.453Z,89.14
2022-11-01T03:19:43.739Z,89.42
2022-11-01T03:22:36.554Z,88.86
2022-11-01T03:25:30.974Z,88.82
2022-11-01T03:28:07.534Z,88.00
2022-11-01T03:30:42.116Z,88.18
2022-11-01T03:33:14.787Z,88.17
2022-11-01T03:35:47.759Z,89.15
2022-11-01T03:38:20.016Z,89.95
2022-11-01T03:40:57.114Z,89.61
2022-11-01T03:43:27.657Z,90.81
2022-11-01T03:45:55.463Z,90.98
2022-11-01T03:48:22.598Z,91.15
2022-11-01T03:50:56.356Z,92.12
2022-11-01T03:53:24.646Z,91.13
2022-11-01T03:55:52.547Z,91.76
2022-11-01T03:58:22.187Z,91.15
2022-11-01T04:00:51.878Z,90.98
2022-11-01T04:03:18.964Z,89.06
2022-11-01T04:05:46.049Z,89.32
2022-11-01T04:08:13.098Z,90.63
2022-11-01T04:10:40.232Z,91.18
2022-11-01T04:13:09.699Z,90.17
2022-11-01T04:15:55.430Z,90.76
2022-11-01T04:18:45.633Z,89.78
2022-11-01T04:21:15.323Z,91.13
2022-11-01T04:23:43.824Z,91.98
2022-11-01T04:26:16.550Z,92.00
2022-11-01T04:28:57.199Z,89.51
2022-11-01T04:31:37.047Z,90.28
2022-11-01T04:34:05.718Z,90.06
2022-11-01T04:36:32.854Z,89.94
2022-11-01T04:39:00.103Z,92.89
2022-11-01T04:41:29.407Z,91.16
2022-11-01T04:44:00.622Z,89.90
2022-11-01T04:46:31.926Z,91.06
2022-11-01T04:48:59.055Z,90.03
2022-11-01T04:51:26.289Z,92.17
2022-11-01T04:53:53.427Z,92.48
2022-11-01T04:56:20.451Z,92.16
2022-11-01T04:58:47.524Z,92.26
2022-11-01T05:01:15.439Z,91.64
2022-11-01T05:03:43.706Z,92.11
2022-11-01T05:06:10.749Z,92.64
2022-11-01T05:08:37.861Z,92.51
2022-11-01T05:11:04.957Z,91.54
2022-11-01T05:13:34.188Z,90.71
2022-11-01T05:16:21.155Z,91.33
2022-11-01T05:18:50.850Z,92.71
2022-11-01T05:21:20.808Z,93.92
2022-11-01T05:23:49.209Z,94.37
2022-11-01T05:26:16.257Z,94.38
2022-11-01T05:28:43.506Z,93.92
2022-11-01T05:31:11.032Z,93.37
2022-11-01T05:33:38.090Z,92.88
2022-11-01T05:36:05.742Z,93.32
2022-11-01T05:38:37.626Z,94.63
2022-11-01T05:41:04.973Z,94.07
2022-11-01T05:43:32.079Z,93.54
2022-11-01T05:45:59.103Z,94.45
2022-11-01T05:48:26.235Z,93.76
2022-11-01T05:50:54.835Z,94.51
2022-11-01T05:53:21.885Z,94.88
2022-11-01T05:55:51.117Z,97.29
2022-11-01T05:58:18.135Z,95.91
2022-11-01T06:00:45.217Z,95.12
2022-11-01T06:03:12.242Z,94.89
2022-11-01T06:05:39.839Z,93.11
2022-11-01T06:08:07.560Z,95.27
2022-11-01T06:10:35.006Z,96.14
2022-11-01T06:13:04.731Z,94.84
2022-11-01T06:15:37.217Z,95.24
2022-11-01T06:18:09.197Z,97.98
2022-11-01T06:20:38.401Z,98.78
2022-11-01T06:23:11.632Z,97.79
2022-11-01T06:25:38.808Z,98.40
2022-11-01T06:28:05.834Z,96.79
2022-11-01T06:30:32.920Z,95.73
2022-11-01T06:33:03.186Z,95.90
2022-11-01T06:35:30.691Z,95.88
2022-11-01T06:38:07.035Z,96.59
2022-11-01T06:40:37.915Z,95.43
2022-11-01T06:43:06.436Z,94.12
2022-11-01T06:45:34.053Z,94.20
2022-11-01T06:48:01.507Z,95.63
2022-11-01T06:50:28.842Z,95.59
2022-11-01T06:53:00.354Z,96.02
2022-11-01T06:55:28.939Z,94.44
2022-11-01T06:58:01.430Z,94.75
2022-11-01T07:00:30.598Z,95.17
2022-11-01T07:03:05.787Z,96.12
2022-11-01T07:05:37.441Z,95.09
2022-11-01T07:08:08.555Z,94.71
2022-11-01T07:10:39.013Z,94.59
2022-11-01T07:13:09.240Z,93.58
2022-11-01T07:15:36.505Z,91.81
2022-11-01T07:18:06.478Z,92.30
2022-11-01T07:20:41.268Z,93.92
2022-11-01T07:23:17.324Z,97.38
2022-11-01T07:25:44.773Z,95.72
2022-11-01T07:28:12.303Z,96.70
2022-11-01T07:30:39.545Z,95.05
2022-11-01T07:33:07.074Z,94.82
2022-11-01T07:35:35.929Z,93.92
2022-11-01T07:38:06.422Z,93.33
2022-11-01T07:40:41.821Z,92.14
2022-11-01T07:43:09.182Z,92.78
2022-11-01T07:45:37.336Z,92.70
2022-11-01T07:48:10.450Z,93.52
2022-11-01T07:50:40.163Z,93.77
2022-11-01T07:53:16.709Z,94.47
2022-11-01T07:55:44.998Z,94.96
2022-11-01T07:58:14.878Z,93.20
2022-11-01T08:00:46.381Z,91.77
2022-11-01T08:03:16.933Z,93.93
2022-11-01T08:05:45.872Z,93.09
2022-11-01T08:08:14.604Z,92.23
2022-11-01T08:10:42.523Z,90.18
2022-11-01T08:13:19.352Z,90.17
2022-11-01T08:15:48.363Z,93.48
2022-11-01T08:18:16.869Z,93.28
2022-11-01T08:20:44.112Z,93.94
2022-11-01T08:23:11.747Z,94.02
2022-11-01T08:25:41.583Z,93.58
2022-11-01T08:28:16.283Z,92.31
2022-11-01T08:30:45.443Z,91.22
2022-11-01T08:33:12.604Z,90.55
2022-11-01T08:35:40.017Z,91.48
2022-11-01T08:38:07.262Z,91.19
2022-11-01T08:40:34.750Z,92.05
2022-11-01T08:43:02.652Z,92.55
2022-11-01T08:45:30.081Z,91.45
2022-11-01T08:48:03.718Z,91.39
2022-11-01T08:50:33.909Z,91.54
2022-11-01T08:53:11.142Z,91.45
2022-11-01T08:55:38.587Z,90.12
2022-11-01T08:58:07.152Z,90.33
2022-11-01T09:00:35.313Z,90.35
2022-11-01T09:03:02.541Z,88.86
2022-11-01T09:05:31.448Z,89.24
2022-11-01T09:08:01.409Z,89.33
2022-11-01T09:10:31.060Z,90.52
2022-11-01T09:13:02.213Z,89.23
2022-11-01T09:15:30.211Z,88.40
2022-11-01T09:17:57.464Z,87.45
2022-11-01T09:20:24.517Z,87.47
2022-11-01T09:22:54.974Z,86.36
2022-11-01T09:25:22.094Z,86.60
2022-11-01T09:27:49.115Z,86.40
2022-11-01T09:30:18.876Z,86.32
2022-11-01T09:32:46.370Z,86.13
2022-11-01T09:35:13.432Z,84.54
2022-11-01T09:37:42.949Z,84.77
2022-11-01T09:40:13.040Z,84.64
2022-11-01T09:42:45.364Z,85.13
2022-11-01T09:45:34.581Z,83.44
2022-11-01T09:48:05.797Z,84.84
2022-11-01T09:50:43.943Z,86.10
2022-11-01T09:53:29.298Z,84.83
2022-11-01T09:56:44.298Z,85.36
2022-11-01T09:59:23.361Z,83.72
2022-11-01T10:02:45.828Z,84.34
2022-11-01T10:05:18.754Z,85.41
2022-11-01T10:08:27.472Z,87.74
2022-11-01T10:11:10.020Z,85.46
2022-11-01T10:14:28.729Z,84.82
2022-11-01T10:17:16.604Z,84.37
2022-11-01T10:19:48.764Z,85.08
2022-11-01T10:22:25.654Z,87.45
2022-11-01T10:25:08.996Z,87.24
2022-11-01T10:27:55.410Z,85.39
2022-11-01T10:30:22.530Z,86.39
2022-11-01T10:33:17.094Z,86.74
2022-11-01T10:35:46.435Z,85.00
2022-11-01T10:39:23.097Z,87.50
2022-11-01T10:41:53.756Z,87.37
2022-11-01T10:44:33.015Z,87.45
2022-11-01T10:47:08.298Z,85.90
2022-11-01T10:53:02.714Z,87.12
2022-11-01T10:55:57.719Z,86.68
2022-11-01T10:58:47.378Z,85.63
2022-11-01T11:01:24.304Z,86.20
2022-11-01T11:03:52.289Z,85.98
2022-11-01T11:06:22.205Z,84.61
2022-11-01T11:08:55.637Z,85.53
2022-11-01T11:11:42.519Z,87.44
2022-11-01T11:14:11.735Z,88.12
2022-11-01T11:17:00.300Z,90.09
2022-11-01T11:19:30.279Z,89.29
2022-11-01T11:21:59.252Z,87.07
2022-11-01T11:24:43.913Z,88.73
2022-11-01T11:27:27.341Z,88.83
2022-11-01T11:30:05.356Z,90.54
2022-11-01T11:32:47.871Z,89.24
2022-11-01T11:35:14.821Z,88.24
2022-11-01T11:37:58.417Z,87.71
2022-11-01T11:40:38.894Z,86.86
2022-11-01T11:43:23.156Z,87.11
2022-11-01T11:46:21.002Z,88.58
2022-11-01T11:49:01.159Z,88.62
2022-11-01T11:51:31.030Z,89.50
2022-11-01T11:54:22.595Z,88.84
2022-11-01T11:57:24.998Z,86.71
2022-11-01T12:00:00.456Z,85.63
2022-11-01T12:02:39.253Z,85.58
2022-11-01T12:05:19.202Z,85.28
2022-11-01T12:07:50.548Z,84.92
2022-11-01T12:10:45.731Z,85.04
2022-11-01T12:13:37.796Z,86.11
2022-11-01T12:16:17.106Z,85.85
2022-11-01T12:19:02.132Z,85.17
2022-11-01T12:21:41.319Z,89.17
2022-11-01T12:24:49.378Z,90.18
2022-11-01T12:27:22.049Z,88.41
2022-11-01T12:29:59.751Z,89.50
2022-11-01T12:32:32.234Z,88.96
2022-11-01T12:35:04.930Z,87.55
2022-11-01T12:37:53.219Z,87.29
2022-11-01T12:40:43.527Z,88.68
2022-11-01T12:43:31.314Z,87.53
2022-11-01T12:46:19.263Z,89.23
2022-11-01T12:49:11.567Z,90.00
2022-11-01T12:51:50.642Z,92.40
2022-11-01T12:54:20.087Z,91.28
2022-11-01T12:56:47.182Z,89.62
2022-11-01T12:59:23.374Z,89.27
2022-11-01T13:02:28.560Z,90.36
2022-11-01T13:05:07.893Z,88.51
2022-11-01T13:08:11.182Z,86.54
2022-11-01T13:10:44.164Z,85.40
2022-11-01T13:14:01.680Z,84.87
2022-11-01T13:16:40.129Z,84.66
2022-11-01T13:19:10.209Z,85.77
2022-11-01T13:21:58.504Z,86.27
2022-11-01T13:24:56.373Z,85.12
2022-11-01T13:27:33.143Z,87.99
2022-11-01T13:30:04.524Z,86.29
2022-11-01T13:32:48.922Z,88.58
2022-11-01T13:35:34.884Z,88.68
2022-11-01T13:38:25.672Z,90.56
2022-11-01T13:41:34.278Z,88.00
2022-11-01T13:44:19.296Z,86.94
2022-11-01T13:47:16.748Z,86.65
2022-11-01T13:50:21.735Z,86.85
2022-11-01T13:53:14.028Z,87.75
2022-11-01T13:56:02.483Z,89.84
2022-11-01T13:58:31.510Z,89.09
2022-11-01T14:01:28.419Z,86.73
2022-11-01T14:04:14.392Z,87.54
2022-11-01T14:07:05.154Z,89.13
2022-11-01T14:09:42.252Z,87.60
2022-11-01T14:12:09.747Z,88.53
2022-11-01T14:14:38.725Z,89.59
2022-11-01T14:17:21.010Z,91.25
2022-11-01T14:19:55.704Z,90.55
2022-11-01T14:22:22.664Z,90.58
2022-11-01T14:25:03.413Z,91.45
2022-11-01T14:27:37.950Z,90.81
2022-11-01T14:30:28.662Z,89.09
2022-11-01T14:32:59.682Z,88.13
2022-11-01T14:35:33.564Z,89.20
2022-11-01T14:38:11.834Z,89.47
2022-11-01T14:40:53.756Z,88.79
2022-11-01T14:43:25.397Z,89.09
2022-11-01T14:45:59.847Z,88.69
2022-11-01T14:48:42.043Z,90.87
2022-11-01T14:51:21.567Z,91.13
2022-11-01T14:54:20.377Z,90.29
2022-11-01T14:56:55.861Z,89.10
2022-11-01T14:59:27.384Z,89.79
2022-11-01T15:02:02.648Z,88.99
2022-11-01T15:04:44.223Z,89.52
2022-11-01T15:07:27.845Z,87.86
2022-11-01T15:10:10.505Z,88.07
2022-11-01T15:12:58.869Z,88.39
2022-11-01T15:15:31.356Z,88.14
2022-11-01T15:18:22.018Z,86.47
2022-11-01T15:20:55.003Z,85.68
2022-11-01T15:23:45.567Z,85.11
2022-11-01T15:26:16.002Z,84.33
2022-11-01T15:29:20.102Z,84.07
2022-11-01T15:31:58.745Z,84.35
2022-11-01T15:34:34.686Z,85.53
2022-11-01T15:37:20.749Z,85.39
2022-11-01T15:39:48.339Z,86.76
2022-11-01T15:42:23.678Z,85.96
2022-11-01T15:44:50.915Z,85.07
2022-11-01T15:47:23.900Z,85.57
2022-11-01T15:50:04.991Z,86.86
2022-11-01T15:52:34.777Z,87.29
2022-11-01T15:55:47.867Z,87.90
2022-11-01T15:58:26.732Z,87.99
2022-11-01T16:01:10.593Z,87.49
2022-11-01T16:04:03.253Z,87.48
2022-11-01T16:06:41.009Z,86.75
2022-11-01T16:09:28.389Z,87.23
2022-11-01T16:12:02.565Z,86.29
2022-11-01T16:14:37.699Z,85.93
2022-11-01T16:17:20.649Z,86.29
2022-11-01T16:19:51.730Z,86.09
2022-11-01T16:22:31.215Z,86.15
2022-11-01T16:25:07.361Z,86.22
2022-11-01T16:27:53.841Z,86.68
2022-11-01T16:30:43.005Z,86.27
2022-11-01T16:33:33.782Z,87.86
2022-11-01T16:36:04.740Z,87.73
2022-11-01T16:38:37.282Z,87.52
2022-11-01T16:41:24.818Z,86.33
2022-11-01T16:43:57.850Z,86.11
2022-11-01T16:46:30.305Z,86.97
2022-11-01T16:49:15.551Z,86.55
2022-11-01T16:51:43.009Z,86.12
2022-11-01T16:54:10.515Z,85.27
2022-11-01T16:56:45.144Z,84.69
2022-11-01T16:59:18.023Z,85.33
2022-11-01T17:01:49.340Z,84.38
2022-11-01T17:04:19.421Z,84.60
2022-11-01T17:06:46.481Z,84.31
2022-11-01T17:09:16.688Z,84.36
2022-11-01T17:11:50.743Z,84.19
2022-11-01T17:14:22.195Z,84.34
2022-11-01T17:16:56.337Z,85.89
2022-11-01T17:19:31.836Z,85.11
2022-11-01T17:22:07.243Z,85.81
2022-11-01T17:24:35.393Z,84.90
2022-11-01T17:27:05.382Z,83.86
2022-11-01T17:29:33.258Z,83.41
2022-11-01T17:32:04.236Z,83.36
2022-11-01T17:34:31.343Z,82.95
2022-11-01T17:36:58.555Z,84.69
2022-11-01T17:39:28.977Z,83.73
2022-11-01T17:41:57.034Z,84.00
2022-11-01T17:44:26.601Z,84.07
2022-11-01T17:46:53.749Z,84.34
2022-11-01T17:49:23.714Z,85.79
2022-11-01T17:51:54.773Z,85.22
2022-11-01T17:54:23.482Z,84.37
2022-11-01T17:56:51.448Z,84.37
2022-11-01T17:59:18.862Z,84.28
2022-11-01T18:01:46.260Z,84.20
2022-11-01T18:04:13.518Z,84.19
2022-11-01T18:06:40.824Z,84.92
2022-11-01T18:09:27.188Z,86.03
2022-11-01T18:12:15.113Z,85.19
2022-11-01T18:15:02.623Z,84.75
2022-11-01T18:17:52.516Z,85.52
2022-11-01T18:20:46.818Z,85.35
2022-11-01T18:23:20.064Z,85.43
2022-11-01T18:25:49.220Z,84.28
2022-11-01T18:28:26.522Z,84.65
2022-11-01T18:31:02.313Z,84.09
2022-11-01T18:33:41.746Z,83.92
2022-11-01T18:36:26.309Z,84.42
2022-11-01T18:39:41.785Z,85.89
2022-11-01T18:42:10.515Z,84.50
2022-11-01T18:44:40.654Z,84.28
2022-11-01T18:47:21.250Z,83.86
2022-11-01T18:49:52.188Z,83.06
2022-11-01T18:52:22.861Z,84.06
2022-11-01T18:54:56.522Z,84.02
2022-11-01T18:57:24.897Z,83.94
2022-11-01T18:59:56.168Z,84.23
2022-11-01T19:02:28.322Z,84.12
2022-11-01T19:05:21.388Z,83.95
2022-11-01T19:08:20.286Z,84.25
2022-11-01T19:10:43.365Z,84.38
2022-11-01T19:13:32.418Z,85.29
2022-11-01T19:16:02.033Z,84.47
2022-11-01T19:18:29.938Z,84.29
2022-11-01T19:21:00.946Z,85.10
2022-11-01T19:23:38.966Z,84.47
2022-11-01T19:26:24.156Z,86.30
2022-11-01T19:28:53.830Z,85.18
2022-11-01T19:31:29.600Z,84.90
2022-11-01T19:34:06.227Z,84.07
2022-11-01T19:39:37.641Z,84.36
2022-11-01T19:42:32.215Z,84.06
2022-11-01T19:45:05.023Z,85.04
2022-11-01T19:47:41.847Z,84.92
2022-11-01T19:50:27.887Z,86.00
2022-11-01T19:52:59.044Z,86.05
2022-11-01T19:55:44.384Z,85.84
2022-11-01T19:58:27.969Z,84.62
2022-11-01T20:01:24.144Z,84.16
2022-11-01T20:04:00.636Z,84.44
2022-11-01T20:06:27.961Z,83.91
2022-11-01T20:09:18.447Z,85.21
2022-11-01T20:11:45.910Z,84.49
2022-11-01T20:14:13.292Z,84.09
2022-11-01T20:16:40.912Z,84.61
2022-11-01T20:19:13.240Z,84.56
2022-11-01T20:21:44.503Z,83.73
2022-11-01T20:24:11.615Z,84.07
2022-11-01T20:26:38.742Z,84.74
2022-11-01T20:29:08.462Z,84.99
2022-11-01T20:31:35.549Z,85.12
2022-11-01T20:34:02.826Z,84.95
2022-11-01T20:36:30.028Z,85.11
2022-11-01T20:38:59.446Z,83.81
2022-11-01T20:41:27.331Z,84.38
2022-11-01T20:43:54.392Z,84.86
2022-11-01T20:46:24.107Z,84.76
2022-11-01T20:48:51.248Z,84.30
2022-11-01T20:51:18.438Z,84.86
2022-11-01T20:53:45.502Z,84.99
2022-11-01T20:56:15.056Z,85.64
2022-11-01T20:58:42.172Z,83.77
2022-11-01T21:01:19.826Z,85.62
2022-11-01T21:03:51.764Z,84.63
2022-11-01T21:06:19.276Z,84.19
2022-11-01T21:08:47.724Z,83.67
2022-11-01T21:11:44.137Z,83.50
2022-11-01T21:14:21.809Z,83.90
2022-11-01T21:16:53.444Z,84.26
2022-11-01T21:19:26.509Z,84.24
2022-11-01T21:21:59.043Z,84.67
2022-11-01T21:24:37.390Z,83.84
2022-11-01T21:27:13.153Z,83.97
2022-11-01T21:29:49.225Z,84.58
2022-11-01T21:32:30.013Z,84.19
2022-11-01T21:34:58.473Z,83.98
2022-11-01T21:37:29.957Z,84.09
2022-11-01T21:40:05.202Z,83.91
2022-11-01T21:42:36.518Z,84.64
2022-11-01T21:45:38.906Z,83.61
2022-11-01T21:48:34.415Z,85.24
2022-11-01T21:51:01.480Z,85.30
2022-11-01T21:53:28.493Z,84.77
2022-11-01T21:55:55.601Z,85.03
2022-11-01T21:58:25.034Z,84.52
2022-11-01T22:00:52.100Z,84.73
2022-11-01T22:03:19.220Z,84.85
2022-11-01T22:05:46.290Z,83.96
2022-11-01T22:08:13.406Z,83.40
2022-11-01T22:10:40.498Z,83.58
2022-11-01T22:13:10.229Z,83.12
2022-11-01T22:15:37.529Z,82.81
2022-11-01T22:18:06.947Z,83.17
2022-11-01T22:20:36.317Z,84.27
2022-11-01T22:23:03.598Z,83.76
2022-11-01T22:25:30.920Z,83.11
2022-11-01T22:27:57.983Z,83.87
2022-11-01T22:30:25.185Z,82.89
2022-11-01T22:32:52.224Z,82.74
2022-11-01T22:35:19.314Z,83.88
2022-11-01T22:37:46.497Z,83.36
2022-11-01T22:40:14.977Z,83.91
2022-11-01T22:42:42.003Z,84.03
2022-11-01T22:45:17.937Z,83.04
2022-11-01T22:47:48.866Z,83.63
2022-11-01T22:50:27.951Z,84.99
2022-11-01T22:52:55.097Z,84.17
2022-11-01T22:55:27.449Z,84.62
2022-11-01T22:58:24.709Z,84.17
2022-11-01T23:00:51.882Z,84.34
2022-11-01T23:03:38.392Z,84.41
2022-11-01T23:06:34.718Z,84.02
2022-11-01T23:09:15.137Z,84.71
2022-11-01T23:12:10.515Z,83.79
2022-11-01T23:14:40.162Z,84.21
2022-11-01T23:17:21.874Z,84.03
2022-11-01T23:20:15.741Z,84.19
2022-11-01T23:22:43.018Z,83.89
2022-11-01T23:25:10.627Z,83.11
2022-11-01T23:27:37.872Z,82.74
2022-11-01T23:30:05.495Z,82.25
2022-11-01T23:32:32.708Z,82.79
2022-11-01T23:35:18.117Z,83.15
2022-11-01T23:37:46.506Z,82.81
2022-11-01T23:40:21.278Z,82.73
2022-11-01T23:42:49.079Z,82.60
2022-11-01T23:45:33.992Z,82.70
2022-11-01T23:48:02.385Z,83.61
2022-11-01T23:50:35.881Z,83.27
2022-11-01T23:53:06.490Z,82.83
2022-11-01T23:55:48.315Z,82.88
